Allegheny County Airport
KAGC : now visible

Airfield :











YOU CAN JOIN US ON...

 
LOGIN :

Register | Disclaimer

   EN    FR    IT 

 









Legend :    VFR   Marginal VFR   IFR   Intensive IFR   Very Intensive IFR
Visi :
Ceiling :
>= 8 km
>= 3000ft
5 to 8 km
1000 to 3000 ft
1500m to 5 km
500 to 1000 ft
800 to 1500m
200 to 500 ft
< 800m
< 200 ft
Symbols :   Thunderstorms  Fog  Heavy snow  Heavy precipitations  Wind > 20 kt







- Airport Elevation : 1252 ft
- IATA code : AGC


KAGC - Allegheny County

CURRENT METAR :
  • 160553Z 19004KT 10SM OVC080 21/14 A3009 RMK AO2 SLP186 T02060144 10239 20200 56005

EXPIRED METARs :
  • 160453Z 18005KT 10SM FEW075 BKN120 20/14 A3009 RMK AO2 SLP187 T02000144 402780122
  • 160353Z 19006KT 10SM CLR 21/14 A3010 RMK AO2 SLP188 T02060144

TAF KAGC
Valid from the 16 at 06:00 until the 17 at 06:00 UTC


160520Z 1606/1706 26003KT P6SM BKN100
FM161500 25005KT P6SM BKN050
FM170100 04003KT P6SM BKN025
No reported NOTAMs for that airfield.



MET'MAP, your aeronautical weather chart ! - Copyright ORBIFLY December 2007 - Disclaimer

ORBIFLY MET'MAP TEAM :

Programming & Development : Alexandra Zaïnal
Concept & Development : Baudouin d'Aumeries
Co-Development & Prog : Marc-Olivier Méhu
Technical & hardware support : Manuel Goepfert

Contact : metmap@orbifly.com




SOURCES & CREDITS :

   NOAA       Earth
Advisory